sensor_id;sensor_type;location;lat;lon;timestamp;pressure;altitude;pressure_sealevel;temperature;humidity
73981;BME280;62348;51.412;5.436;2023-04-01T00:00:52;99030.47;;;8.87;100.00
73981;BME280;62348;51.412;5.436;2023-04-01T00:03:19;99036.44;;;8.84;100.00
73981;BME280;62348;51.412;5.436;2023-04-01T00:05:46;99031.06;;;8.84;100.00
73981;BME280;62348;51.412;5.436;2023-04-01T00:08:11;99037.28;;;8.84;100.00
73981;BME280;62348;51.412;5.436;2023-04-01T00:10:37;99036.78;;;8.82;100.00
73981;BME280;62348;51.412;5.436;2023-04-01T00:13:02;99033.25;;;8.82;100.00
73981;BME280;62348;51.412;5.436;2023-04-01T00:15:28;99037.06;;;8.81;100.00
73981;BME280;62348;51.412;5.436;2023-04-01T00:17:54;99040.53;;;8.81;100.00
73981;BME280;62348;51.412;5.436;2023-04-01T00:20:19;99039.25;;;8.78;100.00
73981;BME280;62348;51.412;5.436;2023-04-01T00:22:45;99047.84;;;8.81;100.00
73981;BME280;62348;51.412;5.436;2023-04-01T00:25:10;99038.13;;;8.79;100.00
73981;BME280;62348;51.412;5.436;2023-04-01T00:27:36;99040.03;;;8.79;100.00
73981;BME280;62348;51.412;5.436;2023-04-01T00:30:02;99046.22;;;8.79;100.00
73981;BME280;62348;51.412;5.436;2023-04-01T00:32:27;99036.53;;;8.78;100.00
73981;BME280;62348;51.412;5.436;2023-04-01T00:34:52;99050.81;;;8.79;100.00
73981;BME280;62348;51.412;5.436;2023-04-01T00:37:19;99058.91;;;8.79;100.00
73981;BME280;62348;51.412;5.436;2023-04-01T00:39:46;99058.91;;;8.79;100.00
73981;BME280;62348;51.412;5.436;2023-04-01T00:42:12;99057.00;;;8.79;100.00
73981;BME280;62348;51.412;5.436;2023-04-01T00:44:38;99057.59;;;8.76;100.00
73981;BME280;62348;51.412;5.436;2023-04-01T00:47:04;99055.69;;;8.77;100.00
73981;BME280;62348;51.412;5.436;2023-04-01T00:49:33;99055.97;;;8.75;100.00
73981;BME280;62348;51.412;5.436;2023-04-01T00:52:02;99066.47;;;8.77;100.00
73981;BME280;62348;51.412;5.436;2023-04-01T00:54:30;99067.28;;;8.77;100.00
73981;BME280;62348;51.412;5.436;2023-04-01T00:57:00;99070.25;;;8.76;100.00
73981;BME280;62348;51.412;5.436;2023-04-01T00:59:34;99082.66;;;8.77;100.00
73981;BME280;62348;51.412;5.436;2023-04-01T01:02:02;99074.56;;;8.77;100.00
73981;BME280;62348;51.412;5.436;2023-04-01T01:04:33;99074.06;;;8.75;100.00
73981;BME280;62348;51.412;5.436;2023-04-01T01:15:20;99082.94;;;8.75;100.00
73981;BME280;62348;51.412;5.436;2023-04-01T01:28:47;99086.69;;;8.74;100.00
73981;BME280;62348;51.412;5.436;2023-04-01T01:34:16;99087.25;;;8.76;100.00
73981;BME280;62348;51.412;5.436;2023-04-01T01:36:45;99093.44;;;8.77;100.00
73981;BME280;62348;51.412;5.436;2023-04-01T01:39:14;99098.03;;;8.76;100.00
73981;BME280;62348;51.412;5.436;2023-04-01T01:41:41;99092.09;;;8.74;100.00
73981;BME280;62348;51.412;5.436;2023-04-01T01:44:11;99093.44;;;8.77;100.00
73981;BME280;62348;51.412;5.436;2023-04-01T01:46:38;99098.31;;;8.75;100.00
73981;BME280;62348;51.412;5.436;2023-04-01T01:49:07;99095.63;;;8.75;100.00
73981;BME280;62348;51.412;5.436;2023-04-01T01:51:34;99098.31;;;8.75;100.00
73981;BME280;62348;51.412;5.436;2023-04-01T01:53:59;99101.78;;;8.75;100.00
73981;BME280;62348;51.412;5.436;2023-04-01T01:56:26;99099.38;;;8.74;100.00
73981;BME280;62348;51.412;5.436;2023-04-01T01:59:00;99108.25;;;8.74;100.00
73981;BME280;62348;51.412;5.436;2023-04-01T02:01:29;99109.88;;;8.75;100.00
73981;BME280;62348;51.412;5.436;2023-04-01T02:03:57;99112.84;;;8.74;100.00
73981;BME280;62348;51.412;5.436;2023-04-01T02:06:26;99112.56;;;8.75;100.00
73981;BME280;62348;51.412;5.436;2023-04-01T02:09:06;99115.28;;;8.75;100.00
73981;BME280;62348;51.412;5.436;2023-04-01T02:11:52;99117.69;;;8.77;100.00
73981;BME280;62348;51.412;5.436;2023-04-01T02:14:22;99116.06;;;8.76;100.00
73981;BME280;62348;51.412;5.436;2023-04-01T02:17:00;99117.16;;;8.75;100.00
73981;BME280;62348;51.412;5.436;2023-04-01T02:19:57;99121.16;;;8.77;100.00
73981;BME280;62348;51.412;5.436;2023-04-01T02:22:28;99114.97;;;8.77;100.00
73981;BME280;62348;51.412;5.436;2023-04-01T02:24:58;99121.44;;;8.76;100.00
73981;BME280;62348;51.412;5.436;2023-04-01T02:27:25;99119.59;;;8.76;100.00
73981;BME280;62348;51.412;5.436;2023-04-01T02:29:51;99116.34;;;8.74;100.00
73981;BME280;62348;51.412;5.436;2023-04-01T02:32:19;99126.03;;;8.75;100.00
73981;BME280;62348;51.412;5.436;2023-04-01T02:34:46;99132.22;;;8.76;100.00
73981;BME280;62348;51.412;5.436;2023-04-01T02:37:13;99134.13;;;8.75;100.00
73981;BME280;62348;51.412;5.436;2023-04-01T02:39:39;99137.09;;;8.74;100.00
73981;BME280;62348;51.412;5.436;2023-04-01T02:42:05;99135.53;;;8.73;100.00
73981;BME280;62348;51.412;5.436;2023-04-01T02:44:37;99131.44;;;8.75;100.00
73981;BME280;62348;51.412;5.436;2023-04-01T02:47:03;99135.53;;;8.73;100.00
73981;BME280;62348;51.412;5.436;2023-04-01T02:49:28;99130.94;;;8.73;100.00
73981;BME280;62348;51.412;5.436;2023-04-01T02:51:54;99140.09;;;8.72;100.00
73981;BME280;62348;51.412;5.436;2023-04-01T02:54:19;99140.09;;;8.72;100.00
73981;BME280;62348;51.412;5.436;2023-04-01T02:56:45;99140.09;;;8.72;100.00
73981;BME280;62348;51.412;5.436;2023-04-01T02:59:11;99146.31;;;8.73;100.00
73981;BME280;62348;51.412;5.436;2023-04-01T03:01:36;99148.16;;;8.72;100.00
73981;BME280;62348;51.412;5.436;2023-04-01T03:04:01;99150.06;;;8.72;100.00
73981;BME280;62348;51.412;5.436;2023-04-01T03:06:27;99146.59;;;8.71;100.00
73981;BME280;62348;51.412;5.436;2023-04-01T03:08:52;99154.94;;;8.70;100.00
73981;BME280;62348;51.412;5.436;2023-04-01T03:11:20;99157.94;;;8.68;100.00
73981;BME280;62348;51.412;5.436;2023-04-01T03:13:46;99158.72;;;8.69;100.00
73981;BME280;62348;51.412;5.436;2023-04-01T03:16:12;99154.44;;;8.68;100.00
73981;BME280;62348;51.412;5.436;2023-04-01T03:18:37;99159.03;;;8.67;100.00
73981;BME280;62348;51.412;5.436;2023-04-01T03:21:16;99159.84;;;8.68;100.00
73981;BME280;62348;51.412;5.436;2023-04-01T03:23:42;99164.72;;;8.66;100.00
73981;BME280;62348;51.412;5.436;2023-04-01T03:26:09;99164.19;;;8.64;100.00
73981;BME280;62348;51.412;5.436;2023-04-01T03:28:35;99166.06;;;8.63;100.00
73981;BME280;62348;51.412;5.436;2023-04-01T03:31:00;99166.06;;;8.63;100.00
73981;BME280;62348;51.412;5.436;2023-04-01T03:33:25;99166.88;;;8.64;100.00
73981;BME280;62348;51.412;5.436;2023-04-01T03:35:51;99172.28;;;8.64;100.00
73981;BME280;62348;51.412;5.436;2023-04-01T03:38:17;99175.25;;;8.62;100.00
73981;BME280;62348;51.412;5.436;2023-04-01T03:40:44;99173.63;;;8.61;100.00
73981;BME280;62348;51.412;5.436;2023-04-01T03:43:09;99180.94;;;8.60;100.00
73981;BME280;62348;51.412;5.436;2023-04-01T03:45:43;99178.22;;;8.60;100.00
73981;BME280;62348;51.412;5.436;2023-04-01T03:48:08;99176.66;;;8.59;100.00
73981;BME280;62348;51.412;5.436;2023-04-01T03:50:34;99180.13;;;8.60;100.00
73981;BME280;62348;51.412;5.436;2023-04-01T03:53:00;99180.13;;;8.60;100.00
73981;BME280;62348;51.412;5.436;2023-04-01T03:55:25;99181.72;;;8.61;100.00
73981;BME280;62348;51.412;5.436;2023-04-01T03:57:51;99186.31;;;8.60;100.00
73981;BME280;62348;51.412;5.436;2023-04-01T04:00:16;99178.50;;;8.59;100.00
73981;BME280;62348;51.412;5.436;2023-04-01T04:02:42;99180.69;;;8.57;100.00
73981;BME280;62348;51.412;5.436;2023-04-01T04:05:08;99190.41;;;8.58;100.00
73981;BME280;62348;51.412;5.436;2023-04-01T04:07:34;99188.00;;;8.56;100.00
73981;BME280;62348;51.412;5.436;2023-04-01T04:10:00;99192.06;;;8.54;100.00
73981;BME280;62348;51.412;5.436;2023-04-01T04:12:25;99188.28;;;8.55;100.00
73981;BME280;62348;51.412;5.436;2023-04-01T04:14:50;99197.47;;;8.54;100.00
73981;BME280;62348;51.412;5.436;2023-04-01T04:17:16;99201.22;;;8.53;100.00
73981;BME280;62348;51.412;5.436;2023-04-01T04:19:42;99196.94;;;8.52;100.00
73981;BME280;62348;51.412;5.436;2023-04-01T04:22:07;99201.78;;;8.50;100.00
73981;BME280;62348;51.412;5.436;2023-04-01T04:24:36;99195.09;;;8.47;100.00
73981;BME280;62348;51.412;5.436;2023-04-01T04:27:02;99198.88;;;8.46;100.00
73981;BME280;62348;51.412;5.436;2023-04-01T04:29:28;99210.47;;;8.47;100.00
73981;BME280;62348;51.412;5.436;2023-04-01T04:31:53;99200.75;;;8.46;100.00
73981;BME280;62348;51.412;5.436;2023-04-01T04:34:19;99207.25;;;8.45;100.00
73981;BME280;62348;51.412;5.436;2023-04-01T04:36:44;99201.88;;;8.45;100.00
73981;BME280;62348;51.412;5.436;2023-04-01T04:39:12;99210.75;;;8.45;100.00
73981;BME280;62348;51.412;5.436;2023-04-01T04:41:38;99215.34;;;8.45;100.00
73981;BME280;62348;51.412;5.436;2023-04-01T04:44:03;99215.63;;;8.43;100.00
73981;BME280;62348;51.412;5.436;2023-04-01T04:46:29;99215.63;;;8.43;100.00
73981;BME280;62348;51.412;5.436;2023-04-01T04:48:55;99223.69;;;8.43;100.00
73981;BME280;62348;51.412;5.436;2023-04-01T04:51:21;99228.28;;;8.43;100.00
73981;BME280;62348;51.412;5.436;2023-04-01T04:53:47;99231.50;;;8.39;100.00
73981;BME280;62348;51.412;5.436;2023-04-01T04:56:13;99241.50;;;8.39;100.00
73981;BME280;62348;51.412;5.436;2023-04-01T04:58:42;99237.19;;;8.38;100.00
73981;BME280;62348;51.412;5.436;2023-04-01T05:01:09;99243.16;;;8.35;100.00
73981;BME280;62348;51.412;5.436;2023-04-01T05:03:36;99251.22;;;8.35;100.00
73981;BME280;62348;51.412;5.436;2023-04-01T05:06:02;99241.53;;;8.34;100.00
73981;BME280;62348;51.412;5.436;2023-04-01T05:08:27;99246.91;;;8.34;100.00
73981;BME280;62348;51.412;5.436;2023-04-01T05:10:53;99249.88;;;8.32;100.00
73981;BME280;62348;51.412;5.436;2023-04-01T05:13:19;99263.34;;;8.32;100.00
73981;BME280;62348;51.412;5.436;2023-04-01T05:15:44;99257.97;;;8.32;100.00
73981;BME280;62348;51.412;5.436;2023-04-01T05:18:10;99264.47;;;8.31;100.00
73981;BME280;62348;51.412;5.436;2023-04-01T05:20:35;99263.94;;;8.29;100.00
73981;BME280;62348;51.412;5.436;2023-04-01T05:23:01;99272.03;;;8.29;100.00
73981;BME280;62348;51.412;5.436;2023-04-01T05:25:26;99274.72;;;8.29;100.00
73981;BME280;62348;51.412;5.436;2023-04-01T05:27:52;99271.19;;;8.29;100.00
73981;BME280;62348;51.412;5.436;2023-04-01T05:30:18;99274.72;;;8.29;100.00
73981;BME280;62348;51.412;5.436;2023-04-01T05:32:43;99283.06;;;8.28;100.00
73981;BME280;62348;51.412;5.436;2023-04-01T05:35:10;99279.56;;;8.27;100.00
73981;BME280;62348;51.412;5.436;2023-04-01T05:37:36;99290.63;;;8.26;100.00
73981;BME280;62348;51.412;5.436;2023-04-01T05:40:03;99284.41;;;8.25;100.00
73981;BME280;62348;51.412;5.436;2023-04-01T05:42:29;99294.38;;;8.25;100.00
73981;BME280;62348;51.412;5.436;2023-04-01T05:44:54;99294.66;;;8.23;100.00
73981;BME280;62348;51.412;5.436;2023-04-01T05:47:21;99298.19;;;8.24;100.00
73981;BME280;62348;51.412;5.436;2023-04-01T05:49:47;99303.56;;;8.24;100.00
73981;BME280;62348;51.412;5.436;2023-04-01T05:52:12;99300.88;;;8.24;100.00
73981;BME280;62348;51.412;5.436;2023-04-01T05:54:37;99315.13;;;8.24;100.00
73981;BME280;62348;51.412;5.436;2023-04-01T05:57:03;99308.97;;;8.24;100.00
73981;BME280;62348;51.412;5.436;2023-04-01T05:59:28;99310.81;;;8.23;100.00
73981;BME280;62348;51.412;5.436;2023-04-01T06:01:56;99313.81;;;8.21;100.00
73981;BME280;62348;51.412;5.436;2023-04-01T06:04:21;99319.22;;;8.21;100.00
73981;BME280;62348;51.412;5.436;2023-04-01T06:06:47;99331.56;;;8.23;100.00
73981;BME280;62348;51.412;5.436;2023-04-01T06:09:18;99334.25;;;8.23;100.00
73981;BME280;62348;51.412;5.436;2023-04-01T06:11:55;99337.75;;;8.23;100.00
73981;BME280;62348;51.412;5.436;2023-04-01T06:14:46;99344.22;;;8.27;100.00
73981;BME280;62348;51.412;5.436;2023-04-01T06:19:51;99351.22;;;8.23;100.00
73981;BME280;62348;51.412;5.436;2023-04-01T06:25:23;99357.13;;;8.25;100.00
73981;BME280;62348;51.412;5.436;2023-04-01T06:28:20;99364.13;;;8.26;100.00
73981;BME280;62348;51.412;5.436;2023-04-01T06:53:23;99398.00;;;8.32;100.00
73981;BME280;62348;51.412;5.436;2023-04-01T06:55:53;99403.13;;;8.34;100.00
73981;BME280;62348;51.412;5.436;2023-04-01T06:58:23;99398.81;;;8.33;100.00
73981;BME280;62348;51.412;5.436;2023-04-01T07:00:56;99408.50;;;8.34;100.00
73981;BME280;62348;51.412;5.436;2023-04-01T07:03:38;99407.94;;;8.37;100.00
73981;BME280;62348;51.412;5.436;2023-04-01T07:06:09;99419.53;;;8.37;100.00
73981;BME280;62348;51.412;5.436;2023-04-01T07:08:38;99410.38;;;8.38;100.00
73981;BME280;62348;51.412;5.436;2023-04-01T07:11:08;99414.13;;;8.43;100.00
73981;BME280;62348;51.412;5.436;2023-04-01T07:13:41;99414.66;;;8.45;100.00
73981;BME280;62348;51.412;5.436;2023-04-01T07:16:29;99430.53;;;8.46;100.00
73981;BME280;62348;51.412;5.436;2023-04-01T07:21:43;99427.53;;;8.48;100.00
73981;BME280;62348;51.412;5.436;2023-04-01T07:24:16;99439.16;;;8.48;100.00
73981;BME280;62348;51.412;5.436;2023-04-01T07:26:45;99435.34;;;8.49;100.00
73981;BME280;62348;51.412;5.436;2023-04-01T07:29:12;99443.94;;;8.51;100.00
73981;BME280;62348;51.412;5.436;2023-04-01T07:35:00;99451.72;;;8.58;100.00
73981;BME280;62348;51.412;5.436;2023-04-01T07:37:32;99459.81;;;8.58;100.00
73981;BME280;62348;51.412;5.436;2023-04-01T07:43:18;99462.16;;;8.65;100.00
73981;BME280;62348;51.412;5.436;2023-04-01T07:48:46;99472.91;;;8.70;100.00
73981;BME280;62348;51.412;5.436;2023-04-01T07:56:52;99466.13;;;8.77;100.00
73981;BME280;62348;51.412;5.436;2023-04-01T08:00:00;99475.50;;;8.80;100.00
73981;BME280;62348;51.412;5.436;2023-04-01T08:10:36;99493.69;;;8.98;100.00
73981;BME280;62348;51.412;5.436;2023-04-01T08:13:20;99495.25;;;9.05;100.00
73981;BME280;62348;51.412;5.436;2023-04-01T08:16:12;99508.19;;;9.08;100.00
73981;BME280;62348;51.412;5.436;2023-04-01T08:21:19;99516.50;;;9.11;100.00
73981;BME280;62348;51.412;5.436;2023-04-01T08:23:51;99516.50;;;9.11;100.00
73981;BME280;62348;51.412;5.436;2023-04-01T08:26:30;99518.94;;;9.13;100.00
73981;BME280;62348;51.412;5.436;2023-04-01T08:29:37;99525.41;;;9.12;100.00
73981;BME280;62348;51.412;5.436;2023-04-01T08:34:38;99532.06;;;9.19;100.00
73981;BME280;62348;51.412;5.436;2023-04-01T08:37:11;99533.34;;;9.27;100.00
73981;BME280;62348;51.412;5.436;2023-04-01T08:39:47;99530.84;;;9.36;100.00
73981;BME280;62348;51.412;5.436;2023-04-01T08:42:39;99533.97;;;9.48;100.00
73981;BME280;62348;51.412;5.436;2023-04-01T08:55:45;99556.75;;;9.90;100.00
73981;BME280;62348;51.412;5.436;2023-04-01T09:01:26;99573.97;;;9.94;100.00
73981;BME280;62348;51.412;5.436;2023-04-01T09:20:55;99585.09;;;9.88;100.00
73981;BME280;62348;51.412;5.436;2023-04-01T09:29:18;99604.13;;;9.77;100.00
73981;BME280;62348;51.412;5.436;2023-04-01T09:51:10;99629.31;;;9.68;100.00
73981;BME280;62348;51.412;5.436;2023-04-01T10:28:53;99663.66;;;9.62;100.00
73981;BME280;62348;51.412;5.436;2023-04-01T10:45:50;99684.19;;;9.58;100.00
73981;BME280;62348;51.412;5.436;2023-04-01T11:31:45;99711.47;;;9.56;100.00
73981;BME280;62348;51.412;5.436;2023-04-01T11:40:16;99723.91;;;9.52;100.00
73981;BME280;62348;51.412;5.436;2023-04-01T11:46:03;99730.63;;;9.55;100.00
73981;BME280;62348;51.412;5.436;2023-04-01T11:48:40;99733.03;;;9.56;100.00
73981;BME280;62348;51.412;5.436;2023-04-01T12:05:38;99751.09;;;9.61;100.00
73981;BME280;62348;51.412;5.436;2023-04-01T12:08:44;99757.00;;;9.63;100.00
73981;BME280;62348;51.412;5.436;2023-04-01T12:14:10;99761.50;;;9.73;100.00
73981;BME280;62348;51.412;5.436;2023-04-01T12:16:55;99768.25;;;9.75;100.00
73981;BME280;62348;51.412;5.436;2023-04-01T12:19:32;99769.34;;;9.74;100.00
73981;BME280;62348;51.412;5.436;2023-04-01T12:22:23;99772.56;;;9.76;100.00
73981;BME280;62348;51.412;5.436;2023-04-01T12:36:17;99784.75;;;9.69;100.00
73981;BME280;62348;51.412;5.436;2023-04-01T12:39:19;99789.09;;;9.70;100.00
73981;BME280;62348;51.412;5.436;2023-04-01T12:41:58;99797.72;;;9.67;100.00
73981;BME280;62348;51.412;5.436;2023-04-01T12:44:47;99795.56;;;9.69;100.00
73981;BME280;62348;51.412;5.436;2023-04-01T12:55:44;99813.09;;;9.71;100.00
73981;BME280;62348;51.412;5.436;2023-04-01T13:17:52;99823.56;;;9.78;100.00
73981;BME280;62348;51.412;5.436;2023-04-01T13:20:44;99834.09;;;9.80;100.00
73981;BME280;62348;51.412;5.436;2023-04-01T13:23:33;99831.69;;;9.78;100.00
73981;BME280;62348;51.412;5.436;2023-04-01T13:28:37;99838.97;;;9.77;100.00
73981;BME280;62348;51.412;5.436;2023-04-01T13:33:50;99844.09;;;9.79;100.00
73981;BME280;62348;51.412;5.436;2023-04-01T13:36:47;99847.84;;;9.83;100.00
73981;BME280;62348;51.412;5.436;2023-04-01T13:40:01;99842.44;;;9.83;100.00
73981;BME280;62348;51.412;5.436;2023-04-01T13:42:37;99852.47;;;9.77;100.00
73981;BME280;62348;51.412;5.436;2023-04-01T13:45:29;99851.38;;;9.78;100.00
73981;BME280;62348;51.412;5.436;2023-04-01T13:48:27;99858.41;;;9.80;100.00
73981;BME280;62348;51.412;5.436;2023-04-01T14:05:19;99873.53;;;9.75;100.00
73981;BME280;62348;51.412;5.436;2023-04-01T14:10:39;99880.88;;;9.70;100.00
73981;BME280;62348;51.412;5.436;2023-04-01T14:13:18;99882.72;;;9.69;100.00
73981;BME280;62348;51.412;5.436;2023-04-01T14:15:50;99881.69;;;9.65;100.00
73981;BME280;62348;51.412;5.436;2023-04-01T14:24:03;99892.19;;;9.67;100.00
73981;BME280;62348;51.412;5.436;2023-04-01T14:29:49;99901.41;;;9.66;100.00
73981;BME280;62348;51.412;5.436;2023-04-01T14:37:48;99916.50;;;9.62;100.00
73981;BME280;62348;51.412;5.436;2023-04-01T14:40:33;99909.25;;;9.62;100.00
73981;BME280;62348;51.412;5.436;2023-04-01T14:45:51;99917.09;;;9.58;100.00
73981;BME280;62348;51.412;5.436;2023-04-01T14:48:33;99913.59;;;9.58;100.00
73981;BME280;62348;51.412;5.436;2023-04-01T14:51:10;99923.56;;;9.57;100.00
73981;BME280;62348;51.412;5.436;2023-04-01T14:53:44;99925.72;;;9.55;100.00
73981;BME280;62348;51.412;5.436;2023-04-01T14:56:44;99928.16;;;9.57;100.00
73981;BME280;62348;51.412;5.436;2023-04-01T15:04:54;99931.97;;;9.51;100.00
73981;BME280;62348;51.412;5.436;2023-04-01T15:32:53;99975.13;;;9.46;100.00
73981;BME280;62348;51.412;5.436;2023-04-01T15:43:40;99983.25;;;9.41;100.00
73981;BME280;62348;51.412;5.436;2023-04-01T15:51:47;99984.59;;;9.43;100.00
73981;BME280;62348;51.412;5.436;2023-04-01T15:57:44;99998.91;;;9.44;100.00
73981;BME280;62348;51.412;5.436;2023-04-01T16:02:47;100007.78;;;9.49;100.00
73981;BME280;62348;51.412;5.436;2023-04-01T16:05:29;100007.25;;;9.47;100.00
73981;BME280;62348;51.412;5.436;2023-04-01T16:21:01;100013.75;;;9.36;100.00
73981;BME280;62348;51.412;5.436;2023-04-01T16:23:37;100015.66;;;9.35;100.00
73981;BME280;62348;51.412;5.436;2023-04-01T16:26:15;100025.34;;;9.36;100.00
73981;BME280;62348;51.412;5.436;2023-04-01T16:32:14;100025.91;;;9.33;100.00
73981;BME280;62348;51.412;5.436;2023-04-01T16:37:30;100025.91;;;9.33;100.00
73981;BME280;62348;51.412;5.436;2023-04-01T16:42:51;100023.22;;;9.33;100.00
73981;BME280;62348;51.412;5.436;2023-04-01T16:45:40;100029.41;;;9.34;100.00
73981;BME280;62348;51.412;5.436;2023-04-01T16:56:07;100025.63;;;9.25;100.00
73981;BME280;62348;51.412;5.436;2023-04-01T16:58:40;100026.16;;;9.22;100.00
73981;BME280;62348;51.412;5.436;2023-04-01T17:03:38;100039.38;;;9.18;100.00
73981;BME280;62348;51.412;5.436;2023-04-01T17:06:31;100045.34;;;9.20;100.00
73981;BME280;62348;51.412;5.436;2023-04-01T17:09:19;100043.72;;;9.19;100.00
73981;BME280;62348;51.412;5.436;2023-04-01T17:23:01;100071.22;;;9.16;100.00
73981;BME280;62348;51.412;5.436;2023-04-01T17:25:30;100071.50;;;9.14;100.00
73981;BME280;62348;51.412;5.436;2023-04-01T17:50:10;100121.38;;;9.12;100.00
73981;BME280;62348;51.412;5.436;2023-04-01T17:52:45;100126.25;;;9.15;100.00
73981;BME280;62348;51.412;5.436;2023-04-01T17:58:03;100142.44;;;9.20;100.00
73981;BME280;62348;51.412;5.436;2023-04-01T18:00:46;100142.72;;;9.18;100.00
73981;BME280;62348;51.412;5.436;2023-04-01T18:11:57;100165.91;;;9.25;100.00
73981;BME280;62348;51.412;5.436;2023-04-01T18:17:25;100175.34;;;9.27;100.00
73981;BME280;62348;51.412;5.436;2023-04-01T18:22:54;100194.75;;;9.29;100.00
73981;BME280;62348;51.412;5.436;2023-04-01T18:25:28;100199.34;;;9.29;100.00
73981;BME280;62348;51.412;5.436;2023-04-01T18:30:53;100212.84;;;9.29;100.00
73981;BME280;62348;51.412;5.436;2023-04-01T18:39:16;100234.16;;;9.30;100.00
73981;BME280;62348;51.412;5.436;2023-04-01T18:42:05;100231.47;;;9.30;100.00
73981;BME280;62348;51.412;5.436;2023-04-01T18:47:55;100248.19;;;9.32;100.00
73981;BME280;62348;51.412;5.436;2023-04-01T18:52:56;100261.41;;;9.29;100.00
73981;BME280;62348;51.412;5.436;2023-04-01T19:00:47;100279.75;;;9.27;100.00
73981;BME280;62348;51.412;5.436;2023-04-01T19:05:59;100297.81;;;9.21;100.00
73981;BME280;62348;51.412;5.436;2023-04-01T19:08:32;100297.00;;;9.21;100.00
73981;BME280;62348;51.412;5.436;2023-04-01T19:13:29;100311.81;;;9.13;100.00
73981;BME280;62348;51.412;5.436;2023-04-01T19:16:21;100317.47;;;9.11;100.00
73981;BME280;62348;51.412;5.436;2023-04-01T19:21:36;100327.97;;;9.08;100.00
73981;BME280;62348;51.412;5.436;2023-04-01T19:35:45;100355.44;;;8.99;100.00
73981;BME280;62348;51.412;5.436;2023-04-01T19:38:37;100366.22;;;8.99;100.00
73981;BME280;62348;51.412;5.436;2023-04-01T19:46:20;100372.09;;;8.91;100.00
73981;BME280;62348;51.412;5.436;2023-04-01T19:49:04;100383.41;;;8.88;100.00
73981;BME280;62348;51.412;5.436;2023-04-01T19:54:26;100393.09;;;8.84;100.00
73981;BME280;62348;51.412;5.436;2023-04-01T19:57:09;100398.75;;;8.83;100.00
73981;BME280;62348;51.412;5.436;2023-04-01T20:04:48;100424.31;;;8.80;100.00
73981;BME280;62348;51.412;5.436;2023-04-01T20:09:54;100431.06;;;8.77;100.00
73981;BME280;62348;51.412;5.436;2023-04-01T20:15:43;100443.97;;;8.75;100.00
73981;BME280;62348;51.412;5.436;2023-04-01T20:18:18;100448.78;;;8.68;100.00
73981;BME280;62348;51.412;5.436;2023-04-01T20:20:57;100453.59;;;8.66;100.00
73981;BME280;62348;51.412;5.436;2023-04-01T20:23:33;100464.63;;;8.65;100.00
73981;BME280;62348;51.412;5.436;2023-04-01T20:26:08;100470.00;;;8.59;100.00
73981;BME280;62348;51.412;5.436;2023-04-01T20:29:02;100472.41;;;8.56;100.00
73981;BME280;62348;51.412;5.436;2023-04-01T20:31:43;100479.09;;;8.53;100.00
73981;BME280;62348;51.412;5.436;2023-04-01T20:37:42;100486.38;;;8.53;100.00
73981;BME280;62348;51.412;5.436;2023-04-01T20:51:22;100529.13;;;8.44;100.00
73981;BME280;62348;51.412;5.436;2023-04-01T20:59:16;100535.47;;;8.33;100.00
73981;BME280;62348;51.412;5.436;2023-04-01T21:07:24;100553.44;;;8.27;100.00
73981;BME280;62348;51.412;5.436;2023-04-01T21:12:50;100556.31;;;8.20;100.00
73981;BME280;62348;51.412;5.436;2023-04-01T21:15:37;100560.34;;;8.18;100.00
73981;BME280;62348;51.412;5.436;2023-04-01T21:29:38;100597.66;;;8.09;100.00
73981;BME280;62348;51.412;5.436;2023-04-01T21:37:58;100614.25;;;8.01;100.00
73981;BME280;62348;51.412;5.436;2023-04-01T21:40:42;100622.81;;;7.98;100.00
73981;BME280;62348;51.412;5.436;2023-04-01T21:49:36;100641.44;;;7.99;100.00
73981;BME280;62348;51.412;5.436;2023-04-01T21:55:05;100646.94;;;7.88;100.00
73981;BME280;62348;51.412;5.436;2023-04-01T22:01:14;100655.25;;;7.86;100.00
73981;BME280;62348;51.412;5.436;2023-04-01T22:06:50;100674.31;;;7.85;100.00
73981;BME280;62348;51.412;5.436;2023-04-01T22:09:29;100677.13;;;7.73;100.00
73981;BME280;62348;51.412;5.436;2023-04-01T22:12:23;100685.44;;;7.71;100.00
73981;BME280;62348;51.412;5.436;2023-04-01T22:15:04;100693.25;;;7.73;100.00
73981;BME280;62348;51.412;5.436;2023-04-01T22:17:50;100695.06;;;7.67;100.00
73981;BME280;62348;51.412;5.436;2023-04-01T22:20:36;100700.22;;;7.69;100.00
73981;BME280;62348;51.412;5.436;2023-04-01T22:23:34;100703.03;;;7.62;100.00
73981;BME280;62348;51.412;5.436;2023-04-01T22:31:22;100708.19;;;7.47;100.00
73981;BME280;62348;51.412;5.436;2023-04-01T22:36:39;100721.16;;;7.50;100.00
73981;BME280;62348;51.412;5.436;2023-04-01T22:39:20;100720.72;;;7.41;100.00
73981;BME280;62348;51.412;5.436;2023-04-01T22:50:00;100742.00;;;7.42;100.00
73981;BME280;62348;51.412;5.436;2023-04-01T22:52:43;100740.28;;;7.36;100.00
73981;BME280;62348;51.412;5.436;2023-04-01T22:55:15;100756.78;;;7.28;100.00
73981;BME280;62348;51.412;5.436;2023-04-01T22:57:54;100758.09;;;7.26;100.00
73981;BME280;62348;51.412;5.436;2023-04-01T23:00:26;100763.63;;;7.19;100.00
73981;BME280;62348;51.412;5.436;2023-04-01T23:05:25;100776.75;;;7.15;100.00
73981;BME280;62348;51.412;5.436;2023-04-01T23:08:03;100781.06;;;7.16;100.00
73981;BME280;62348;51.412;5.436;2023-04-01T23:13:05;100792.31;;;7.13;100.00
73981;BME280;62348;51.412;5.436;2023-04-01T23:15:36;100789.50;;;7.08;100.00
73981;BME280;62348;51.412;5.436;2023-04-01T23:20:47;100796.16;;;7.06;100.00
73981;BME280;62348;51.412;5.436;2023-04-01T23:26:13;100812.78;;;7.02;100.00
73981;BME280;62348;51.412;5.436;2023-04-01T23:28:49;100816.50;;;7.01;100.00
73981;BME280;62348;51.412;5.436;2023-04-01T23:34:04;100821.19;;;6.94;
73981;BME280;62348;51.412;5.436;2023-04-01T23:36:42;100832.78;;;6.95;100.00
73981;BME280;62348;51.412;5.436;2023-04-01T23:39:30;100839.31;;;6.99;100.00
73981;BME280;62348;51.412;5.436;2023-04-01T23:42:01;100842.47;;;6.96;100.00
73981;BME280;62348;51.412;5.436;2023-04-01T23:44:28;100848.34;;;6.93;100.00